sensor_id;sensor_type;location;lat;lon;timestamp;P1;durP1;ratioP1;P2;durP2;ratioP2
24813;SDS011;12904;50.088;11.414;2023-05-07T00:00:33;13.60;;;12.32;;
24813;SDS011;12904;50.088;11.414;2023-05-07T00:02:59;13.18;;;11.93;;
24813;SDS011;12904;50.088;11.414;2023-05-07T00:05:25;13.02;;;12.02;;
24813;SDS011;12904;50.088;11.414;2023-05-07T00:07:51;13.43;;;12.10;;
24813;SDS011;12904;50.088;11.414;2023-05-07T00:10:17;13.38;;;12.38;;
24813;SDS011;12904;50.088;11.414;2023-05-07T00:12:44;14.75;;;13.45;;
24813;SDS011;12904;50.088;11.414;2023-05-07T00:15:09;13.60;;;12.20;;
24813;SDS011;12904;50.088;11.414;2023-05-07T00:17:36;14.52;;;13.25;;
24813;SDS011;12904;50.088;11.414;2023-05-07T00:20:02;13.27;;;12.18;;
24813;SDS011;12904;50.088;11.414;2023-05-07T00:22:29;13.13;;;12.02;;
24813;SDS011;12904;50.088;11.414;2023-05-07T00:24:56;14.05;;;12.75;;
24813;SDS011;12904;50.088;11.414;2023-05-07T00:27:21;14.10;;;12.90;;
24813;SDS011;12904;50.088;11.414;2023-05-07T00:29:47;12.57;;;11.57;;
24813;SDS011;12904;50.088;11.414;2023-05-07T00:32:13;11.52;;;10.52;;
24813;SDS011;12904;50.088;11.414;2023-05-07T00:34:39;12.60;;;11.40;;
24813;SDS011;12904;50.088;11.414;2023-05-07T00:37:05;11.55;;;10.48;;
24813;SDS011;12904;50.088;11.414;2023-05-07T00:39:32;12.20;;;11.07;;
24813;SDS011;12904;50.088;11.414;2023-05-07T00:41:58;13.00;;;11.70;;
24813;SDS011;12904;50.088;11.414;2023-05-07T00:44:25;12.65;;;11.65;;
24813;SDS011;12904;50.088;11.414;2023-05-07T00:46:51;13.57;;;12.25;;
24813;SDS011;12904;50.088;11.414;2023-05-07T00:49:17;15.35;;;13.40;;
24813;SDS011;12904;50.088;11.414;2023-05-07T00:51:43;14.20;;;12.85;;
24813;SDS011;12904;50.088;11.414;2023-05-07T00:54:10;15.65;;;14.18;;
24813;SDS011;12904;50.088;11.414;2023-05-07T00:56:36;15.00;;;13.68;;
24813;SDS011;12904;50.088;11.414;2023-05-07T00:59:02;13.98;;;12.88;;
24813;SDS011;12904;50.088;11.414;2023-05-07T01:01:28;14.88;;;13.60;;
24813;SDS011;12904;50.088;11.414;2023-05-07T01:03:54;13.90;;;12.80;;
24813;SDS011;12904;50.088;11.414;2023-05-07T01:06:20;13.30;;;12.30;;
24813;SDS011;12904;50.088;11.414;2023-05-07T01:08:48;15.38;;;14.07;;
24813;SDS011;12904;50.088;11.414;2023-05-07T01:11:15;15.57;;;13.98;;
24813;SDS011;12904;50.088;11.414;2023-05-07T01:13:44;15.43;;;14.02;;
24813;SDS011;12904;50.088;11.414;2023-05-07T01:16:10;14.77;;;13.32;;
24813;SDS011;12904;50.088;11.414;2023-05-07T01:18:36;14.02;;;12.73;;
24813;SDS011;12904;50.088;11.414;2023-05-07T01:21:02;14.10;;;12.80;;
24813;SDS011;12904;50.088;11.414;2023-05-07T01:23:29;14.23;;;13.02;;
24813;SDS011;12904;50.088;11.414;2023-05-07T01:25:56;14.27;;;12.73;;
24813;SDS011;12904;50.088;11.414;2023-05-07T01:28:21;15.23;;;13.05;;
24813;SDS011;12904;50.088;11.414;2023-05-07T01:30:48;15.63;;;14.23;;
24813;SDS011;12904;50.088;11.414;2023-05-07T01:33:25;14.88;;;13.63;;
24813;SDS011;12904;50.088;11.414;2023-05-07T01:35:52;14.10;;;12.98;;
24813;SDS011;12904;50.088;11.414;2023-05-07T01:38:19;14.27;;;12.93;;
24813;SDS011;12904;50.088;11.414;2023-05-07T01:40:47;13.88;;;12.75;;
24813;SDS011;12904;50.088;11.414;2023-05-07T01:43:13;13.50;;;12.27;;
24813;SDS011;12904;50.088;11.414;2023-05-07T01:45:39;11.82;;;10.25;;
24813;SDS011;12904;50.088;11.414;2023-05-07T01:48:06;9.25;;;8.45;;
24813;SDS011;12904;50.088;11.414;2023-05-07T01:50:33;9.52;;;8.63;;
24813;SDS011;12904;50.088;11.414;2023-05-07T01:52:59;10.90;;;10.00;;
24813;SDS011;12904;50.088;11.414;2023-05-07T01:55:27;10.82;;;9.88;;
24813;SDS011;12904;50.088;11.414;2023-05-07T01:57:53;12.38;;;11.20;;
24813;SDS011;12904;50.088;11.414;2023-05-07T02:00:18;13.90;;;12.75;;
24813;SDS011;12904;50.088;11.414;2023-05-07T02:02:44;14.95;;;13.32;;
24813;SDS011;12904;50.088;11.414;2023-05-07T02:05:10;14.35;;;13.15;;
24813;SDS011;12904;50.088;11.414;2023-05-07T02:07:36;13.25;;;12.25;;
24813;SDS011;12904;50.088;11.414;2023-05-07T02:10:01;13.82;;;12.63;;
24813;SDS011;12904;50.088;11.414;2023-05-07T02:12:28;14.20;;;12.88;;
24813;SDS011;12904;50.088;11.414;2023-05-07T02:14:53;12.95;;;11.85;;
24813;SDS011;12904;50.088;11.414;2023-05-07T02:17:19;13.50;;;12.27;;
24813;SDS011;12904;50.088;11.414;2023-05-07T02:19:45;13.50;;;12.20;;
24813;SDS011;12904;50.088;11.414;2023-05-07T02:22:10;13.60;;;12.45;;
24813;SDS011;12904;50.088;11.414;2023-05-07T02:24:36;12.13;;;11.02;;
24813;SDS011;12904;50.088;11.414;2023-05-07T02:27:02;11.90;;;10.88;;
24813;SDS011;12904;50.088;11.414;2023-05-07T02:29:28;11.23;;;10.23;;
24813;SDS011;12904;50.088;11.414;2023-05-07T02:31:54;11.85;;;10.82;;
24813;SDS011;12904;50.088;11.414;2023-05-07T02:34:20;10.73;;;9.93;;
24813;SDS011;12904;50.088;11.414;2023-05-07T02:36:46;10.85;;;9.77;;
24813;SDS011;12904;50.088;11.414;2023-05-07T02:39:12;12.35;;;11.00;;
24813;SDS011;12904;50.088;11.414;2023-05-07T02:41:38;13.90;;;12.60;;
24813;SDS011;12904;50.088;11.414;2023-05-07T02:44:03;12.27;;;11.10;;
24813;SDS011;12904;50.088;11.414;2023-05-07T02:46:29;13.57;;;12.48;;
24813;SDS011;12904;50.088;11.414;2023-05-07T02:48:55;13.93;;;12.00;;
24813;SDS011;12904;50.088;11.414;2023-05-07T02:51:21;14.10;;;13.00;;
24813;SDS011;12904;50.088;11.414;2023-05-07T02:53:47;14.15;;;12.70;;
24813;SDS011;12904;50.088;11.414;2023-05-07T02:56:13;13.98;;;12.55;;
24813;SDS011;12904;50.088;11.414;2023-05-07T02:58:39;14.05;;;12.82;;
24813;SDS011;12904;50.088;11.414;2023-05-07T03:01:05;13.20;;;12.15;;
24813;SDS011;12904;50.088;11.414;2023-05-07T03:03:31;14.30;;;12.80;;
24813;SDS011;12904;50.088;11.414;2023-05-07T03:05:57;15.10;;;13.70;;
24813;SDS011;12904;50.088;11.414;2023-05-07T03:08:24;13.38;;;12.27;;
24813;SDS011;12904;50.088;11.414;2023-05-07T03:10:50;14.73;;;13.07;;
24813;SDS011;12904;50.088;11.414;2023-05-07T03:13:16;14.65;;;13.48;;
24813;SDS011;12904;50.088;11.414;2023-05-07T03:15:42;14.98;;;13.48;;
24813;SDS011;12904;50.088;11.414;2023-05-07T03:18:07;14.23;;;13.02;;
24813;SDS011;12904;50.088;11.414;2023-05-07T03:20:33;15.07;;;13.77;;
24813;SDS011;12904;50.088;11.414;2023-05-07T03:22:59;14.88;;;13.40;;
24813;SDS011;12904;50.088;11.414;2023-05-07T03:25:24;14.85;;;13.32;;
24813;SDS011;12904;50.088;11.414;2023-05-07T03:27:50;16.15;;;14.65;;
24813;SDS011;12904;50.088;11.414;2023-05-07T03:30:16;16.10;;;14.48;;
24813;SDS011;12904;50.088;11.414;2023-05-07T03:32:42;15.30;;;13.98;;
24813;SDS011;12904;50.088;11.414;2023-05-07T03:35:07;16.65;;;15.05;;
24813;SDS011;12904;50.088;11.414;2023-05-07T03:37:33;17.75;;;15.15;;
24813;SDS011;12904;50.088;11.414;2023-05-07T03:39:59;16.65;;;15.00;;
24813;SDS011;12904;50.088;11.414;2023-05-07T03:42:24;15.95;;;14.07;;
24813;SDS011;12904;50.088;11.414;2023-05-07T03:44:50;16.48;;;15.00;;
24813;SDS011;12904;50.088;11.414;2023-05-07T03:47:16;16.35;;;14.60;;
24813;SDS011;12904;50.088;11.414;2023-05-07T03:49:41;20.67;;;13.88;;
24813;SDS011;12904;50.088;11.414;2023-05-07T03:52:07;17.55;;;14.30;;
24813;SDS011;12904;50.088;11.414;2023-05-07T03:54:33;14.35;;;13.15;;
24813;SDS011;12904;50.088;11.414;2023-05-07T03:56:58;15.98;;;14.48;;
24813;SDS011;12904;50.088;11.414;2023-05-07T03:59:24;15.60;;;14.07;;
24813;SDS011;12904;50.088;11.414;2023-05-07T04:01:49;16.60;;;14.75;;
24813;SDS011;12904;50.088;11.414;2023-05-07T04:04:15;15.23;;;13.93;;
24813;SDS011;12904;50.088;11.414;2023-05-07T04:06:41;15.60;;;14.10;;
24813;SDS011;12904;50.088;11.414;2023-05-07T04:09:07;15.32;;;14.10;;
24813;SDS011;12904;50.088;11.414;2023-05-07T04:11:33;15.23;;;13.98;;
24813;SDS011;12904;50.088;11.414;2023-05-07T04:14:00;16.23;;;14.82;;
24813;SDS011;12904;50.088;11.414;2023-05-07T04:16:25;16.13;;;14.75;;
24813;SDS011;12904;50.088;11.414;2023-05-07T04:18:51;18.02;;;16.20;;
24813;SDS011;12904;50.088;11.414;2023-05-07T04:21:20;17.83;;;16.23;;
24813;SDS011;12904;50.088;11.414;2023-05-07T04:23:46;16.02;;;14.48;;
24813;SDS011;12904;50.088;11.414;2023-05-07T04:26:12;17.42;;;15.40;;
24813;SDS011;12904;50.088;11.414;2023-05-07T04:28:39;16.92;;;15.13;;
24813;SDS011;12904;50.088;11.414;2023-05-07T04:31:05;15.18;;;13.95;;
24813;SDS011;12904;50.088;11.414;2023-05-07T04:33:31;19.58;;;16.52;;
24813;SDS011;12904;50.088;11.414;2023-05-07T04:35:58;16.23;;;14.70;;
24813;SDS011;12904;50.088;11.414;2023-05-07T04:38:27;20.17;;;17.35;;
24813;SDS011;12904;50.088;11.414;2023-05-07T04:40:54;18.25;;;16.63;;
24813;SDS011;12904;50.088;11.414;2023-05-07T04:43:20;17.00;;;15.40;;
24813;SDS011;12904;50.088;11.414;2023-05-07T04:45:46;19.00;;;17.02;;
24813;SDS011;12904;50.088;11.414;2023-05-07T04:48:12;18.92;;;15.93;;
24813;SDS011;12904;50.088;11.414;2023-05-07T04:50:39;19.73;;;17.55;;
24813;SDS011;12904;50.088;11.414;2023-05-07T04:53:05;17.92;;;16.33;;
24813;SDS011;12904;50.088;11.414;2023-05-07T04:55:31;18.10;;;16.15;;
24813;SDS011;12904;50.088;11.414;2023-05-07T04:57:56;16.70;;;15.30;;
24813;SDS011;12904;50.088;11.414;2023-05-07T05:00:22;19.80;;;16.50;;
24813;SDS011;12904;50.088;11.414;2023-05-07T05:02:48;22.58;;;16.25;;
24813;SDS011;12904;50.088;11.414;2023-05-07T05:05:14;19.55;;;17.58;;
24813;SDS011;12904;50.088;11.414;2023-05-07T05:07:39;17.83;;;16.02;;
24813;SDS011;12904;50.088;11.414;2023-05-07T05:10:05;18.15;;;16.52;;
24813;SDS011;12904;50.088;11.414;2023-05-07T05:12:31;21.13;;;18.75;;
24813;SDS011;12904;50.088;11.414;2023-05-07T05:14:57;19.02;;;17.25;;
24813;SDS011;12904;50.088;11.414;2023-05-07T05:17:23;18.45;;;16.63;;
24813;SDS011;12904;50.088;11.414;2023-05-07T05:19:48;19.40;;;17.38;;
24813;SDS011;12904;50.088;11.414;2023-05-07T05:22:14;17.63;;;15.63;;
24813;SDS011;12904;50.088;11.414;2023-05-07T05:24:40;18.63;;;16.75;;
24813;SDS011;12904;50.088;11.414;2023-05-07T05:27:05;18.67;;;16.77;;
24813;SDS011;12904;50.088;11.414;2023-05-07T05:29:31;20.35;;;17.83;;
24813;SDS011;12904;50.088;11.414;2023-05-07T05:31:57;17.60;;;15.70;;
24813;SDS011;12904;50.088;11.414;2023-05-07T05:34:23;16.05;;;14.48;;
24813;SDS011;12904;50.088;11.414;2023-05-07T05:36:48;16.17;;;14.27;;
24813;SDS011;12904;50.088;11.414;2023-05-07T05:39:14;16.05;;;14.57;;
24813;SDS011;12904;50.088;11.414;2023-05-07T05:41:39;18.10;;;16.48;;
24813;SDS011;12904;50.088;11.414;2023-05-07T05:44:05;17.80;;;16.20;;
24813;SDS011;12904;50.088;11.414;2023-05-07T05:46:31;16.95;;;15.55;;
24813;SDS011;12904;50.088;11.414;2023-05-07T05:48:57;18.35;;;16.33;;
24813;SDS011;12904;50.088;11.414;2023-05-07T05:51:22;17.98;;;16.45;;
24813;SDS011;12904;50.088;11.414;2023-05-07T05:53:48;18.50;;;16.45;;
24813;SDS011;12904;50.088;11.414;2023-05-07T05:56:14;18.52;;;16.90;;
24813;SDS011;12904;50.088;11.414;2023-05-07T05:58:41;17.67;;;16.08;;
24813;SDS011;12904;50.088;11.414;2023-05-07T06:01:06;19.67;;;17.63;;
24813;SDS011;12904;50.088;11.414;2023-05-07T06:03:32;17.10;;;15.35;;
24813;SDS011;12904;50.088;11.414;2023-05-07T06:05:58;17.13;;;15.57;;
24813;SDS011;12904;50.088;11.414;2023-05-07T06:08:25;17.67;;;16.05;;
24813;SDS011;12904;50.088;11.414;2023-05-07T06:10:50;19.15;;;15.20;;
24813;SDS011;12904;50.088;11.414;2023-05-07T06:13:16;17.50;;;15.95;;
24813;SDS011;12904;50.088;11.414;2023-05-07T06:15:42;15.57;;;14.05;;
24813;SDS011;12904;50.088;11.414;2023-05-07T06:18:07;16.95;;;15.32;;
24813;SDS011;12904;50.088;11.414;2023-05-07T06:20:33;20.58;;;14.95;;
24813;SDS011;12904;50.088;11.414;2023-05-07T06:22:59;16.63;;;15.10;;
24813;SDS011;12904;50.088;11.414;2023-05-07T06:25:24;16.27;;;14.80;;
24813;SDS011;12904;50.088;11.414;2023-05-07T06:27:50;14.18;;;12.98;;
24813;SDS011;12904;50.088;11.414;2023-05-07T06:30:16;14.70;;;13.43;;
24813;SDS011;12904;50.088;11.414;2023-05-07T06:32:42;15.93;;;13.93;;
24813;SDS011;12904;50.088;11.414;2023-05-07T06:35:08;14.48;;;13.18;;
24813;SDS011;12904;50.088;11.414;2023-05-07T06:37:34;19.20;;;13.77;;
24813;SDS011;12904;50.088;11.414;2023-05-07T06:39:59;14.35;;;12.98;;
24813;SDS011;12904;50.088;11.414;2023-05-07T06:42:25;14.55;;;13.02;;
24813;SDS011;12904;50.088;11.414;2023-05-07T06:44:51;14.73;;;13.15;;
24813;SDS011;12904;50.088;11.414;2023-05-07T06:47:17;13.85;;;12.50;;
24813;SDS011;12904;50.088;11.414;2023-05-07T06:49:42;13.02;;;11.80;;
24813;SDS011;12904;50.088;11.414;2023-05-07T06:52:08;13.10;;;12.02;;
24813;SDS011;12904;50.088;11.414;2023-05-07T06:54:34;12.43;;;11.32;;
24813;SDS011;12904;50.088;11.414;2023-05-07T06:56:59;12.50;;;11.20;;
24813;SDS011;12904;50.088;11.414;2023-05-07T06:59:25;12.95;;;11.75;;
24813;SDS011;12904;50.088;11.414;2023-05-07T07:01:51;11.95;;;10.85;;
24813;SDS011;12904;50.088;11.414;2023-05-07T07:04:16;13.10;;;11.90;;
24813;SDS011;12904;50.088;11.414;2023-05-07T07:06:42;13.15;;;11.85;;
24813;SDS011;12904;50.088;11.414;2023-05-07T07:09:08;12.15;;;11.13;;
24813;SDS011;12904;50.088;11.414;2023-05-07T07:11:33;13.55;;;12.23;;
24813;SDS011;12904;50.088;11.414;2023-05-07T07:13:59;12.48;;;11.38;;
24813;SDS011;12904;50.088;11.414;2023-05-07T07:16:25;11.65;;;10.55;;
24813;SDS011;12904;50.088;11.414;2023-05-07T07:18:51;11.50;;;10.50;;
24813;SDS011;12904;50.088;11.414;2023-05-07T07:21:16;11.82;;;10.93;;
24813;SDS011;12904;50.088;11.414;2023-05-07T07:23:42;11.90;;;10.90;;
24813;SDS011;12904;50.088;11.414;2023-05-07T07:26:07;11.73;;;10.63;;
24813;SDS011;12904;50.088;11.414;2023-05-07T07:28:33;11.45;;;10.55;;
24813;SDS011;12904;50.088;11.414;2023-05-07T07:30:59;11.05;;;10.20;;
24813;SDS011;12904;50.088;11.414;2023-05-07T07:33:24;11.13;;;10.23;;
24813;SDS011;12904;50.088;11.414;2023-05-07T07:35:50;10.25;;;9.45;;
24813;SDS011;12904;50.088;11.414;2023-05-07T07:38:16;10.40;;;9.60;;
24813;SDS011;12904;50.088;11.414;2023-05-07T07:40:41;10.50;;;9.63;;
24813;SDS011;12904;50.088;11.414;2023-05-07T07:43:08;12.18;;;9.50;;
24813;SDS011;12904;50.088;11.414;2023-05-07T07:45:34;10.18;;;9.00;;
24813;SDS011;12904;50.088;11.414;2023-05-07T07:48:00;10.20;;;9.30;;
24813;SDS011;12904;50.088;11.414;2023-05-07T07:50:25;10.10;;;9.18;;
24813;SDS011;12904;50.088;11.414;2023-05-07T07:52:51;9.85;;;7.97;;
24813;SDS011;12904;50.088;11.414;2023-05-07T07:55:19;9.45;;;8.75;;
24813;SDS011;12904;50.088;11.414;2023-05-07T07:57:47;9.57;;;8.88;;
24813;SDS011;12904;50.088;11.414;2023-05-07T08:00:14;8.75;;;8.05;;
24813;SDS011;12904;50.088;11.414;2023-05-07T08:02:40;8.73;;;8.10;;
24813;SDS011;12904;50.088;11.414;2023-05-07T08:05:06;12.57;;;8.75;;
24813;SDS011;12904;50.088;11.414;2023-05-07T08:07:32;8.55;;;7.88;;
24813;SDS011;12904;50.088;11.414;2023-05-07T08:09:58;8.80;;;8.20;;
24813;SDS011;12904;50.088;11.414;2023-05-07T08:12:23;8.98;;;8.18;;
24813;SDS011;12904;50.088;11.414;2023-05-07T08:14:49;10.70;;;8.38;;
24813;SDS011;12904;50.088;11.414;2023-05-07T08:17:15;8.02;;;7.32;;
24813;SDS011;12904;50.088;11.414;2023-05-07T08:19:41;7.35;;;6.75;;
24813;SDS011;12904;50.088;11.414;2023-05-07T08:22:08;7.43;;;6.82;;
24813;SDS011;12904;50.088;11.414;2023-05-07T08:24:35;8.85;;;8.05;;
24813;SDS011;12904;50.088;11.414;2023-05-07T08:27:01;7.78;;;7.07;;
24813;SDS011;12904;50.088;11.414;2023-05-07T08:29:27;7.40;;;6.80;;
24813;SDS011;12904;50.088;11.414;2023-05-07T08:31:52;7.22;;;6.63;;
24813;SDS011;12904;50.088;11.414;2023-05-07T08:34:18;6.80;;;6.18;;
24813;SDS011;12904;50.088;11.414;2023-05-07T08:36:43;7.90;;;7.20;;
24813;SDS011;12904;50.088;11.414;2023-05-07T08:39:11;7.05;;;6.45;;
24813;SDS011;12904;50.088;11.414;2023-05-07T08:41:37;7.43;;;6.90;;
24813;SDS011;12904;50.088;11.414;2023-05-07T08:44:03;6.72;;;6.07;;
24813;SDS011;12904;50.088;11.414;2023-05-07T08:46:36;7.85;;;7.10;;
24813;SDS011;12904;50.088;11.414;2023-05-07T08:49:02;7.07;;;6.25;;
24813;SDS011;12904;50.088;11.414;2023-05-07T08:51:28;7.18;;;6.60;;
24813;SDS011;12904;50.088;11.414;2023-05-07T08:53:53;6.55;;;5.97;;
24813;SDS011;12904;50.088;11.414;2023-05-07T08:56:19;6.93;;;6.07;;
24813;SDS011;12904;50.088;11.414;2023-05-07T08:58:45;6.32;;;5.68;;
24813;SDS011;12904;50.088;11.414;2023-05-07T09:01:14;6.47;;;5.97;;
24813;SDS011;12904;50.088;11.414;2023-05-07T09:03:40;6.40;;;5.38;;
24813;SDS011;12904;50.088;11.414;2023-05-07T09:06:09;6.07;;;5.57;;
24813;SDS011;12904;50.088;11.414;2023-05-07T09:08:35;6.95;;;6.35;;
24813;SDS011;12904;50.088;11.414;2023-05-07T09:11:01;5.70;;;5.20;;
24813;SDS011;12904;50.088;11.414;2023-05-07T09:13:27;6.55;;;6.05;;
24813;SDS011;12904;50.088;11.414;2023-05-07T09:15:53;6.90;;;6.30;;
24813;SDS011;12904;50.088;11.414;2023-05-07T09:18:19;6.60;;;6.10;;
24813;SDS011;12904;50.088;11.414;2023-05-07T09:20:45;6.10;;;5.60;;
24813;SDS011;12904;50.088;11.414;2023-05-07T09:23:10;7.45;;;6.88;;
24813;SDS011;12904;50.088;11.414;2023-05-07T09:25:36;6.18;;;5.70;;
24813;SDS011;12904;50.088;11.414;2023-05-07T09:28:02;7.65;;;6.18;;
24813;SDS011;12904;50.088;11.414;2023-05-07T09:30:32;5.55;;;5.05;;
24813;SDS011;12904;50.088;11.414;2023-05-07T09:32:59;5.35;;;4.95;;
24813;SDS011;12904;50.088;11.414;2023-05-07T09:35:26;5.57;;;5.18;;
24813;SDS011;12904;50.088;11.414;2023-05-07T09:37:55;5.38;;;4.97;;
24813;SDS011;12904;50.088;11.414;2023-05-07T09:40:23;5.20;;;4.70;;
24813;SDS011;12904;50.088;11.414;2023-05-07T09:42:54;6.10;;;5.00;;
24813;SDS011;12904;50.088;11.414;2023-05-07T09:45:26;5.18;;;4.68;;
24813;SDS011;12904;50.088;11.414;2023-05-07T09:47:53;4.70;;;4.30;;
24813;SDS011;12904;50.088;11.414;2023-05-07T09:50:26;6.13;;;5.65;;
24813;SDS011;12904;50.088;11.414;2023-05-07T09:52:57;5.10;;;4.70;;
24813;SDS011;12904;50.088;11.414;2023-05-07T09:55:23;5.50;;;5.10;;
24813;SDS011;12904;50.088;11.414;2023-05-07T09:57:50;5.00;;;4.60;;
24813;SDS011;12904;50.088;11.414;2023-05-07T10:00:18;4.80;;;4.30;;
24813;SDS011;12904;50.088;11.414;2023-05-07T10:02:45;5.07;;;4.68;;
24813;SDS011;12904;50.088;11.414;2023-05-07T10:05:17;6.95;;;4.97;;
24813;SDS011;12904;50.088;11.414;2023-05-07T10:07:44;5.05;;;4.53;;
24813;SDS011;12904;50.088;11.414;2023-05-07T10:10:11;5.38;;;4.93;;
24813;SDS011;12904;50.088;11.414;2023-05-07T10:12:37;4.43;;;4.13;;
24813;SDS011;12904;50.088;11.414;2023-05-07T10:15:05;6.68;;;4.70;;
24813;SDS011;12904;50.088;11.414;2023-05-07T10:17:34;4.97;;;4.57;;
24813;SDS011;12904;50.088;11.414;2023-05-07T10:20:07;4.55;;;4.18;;
24813;SDS011;12904;50.088;11.414;2023-05-07T10:22:43;4.40;;;4.10;;
24813;SDS011;12904;50.088;11.414;2023-05-07T10:25:14;4.75;;;4.35;;
24813;SDS011;12904;50.088;11.414;2023-05-07T10:27:48;4.78;;;4.38;;
24813;SDS011;12904;50.088;11.414;2023-05-07T10:33:05;4.78;;;4.20;;
24813;SDS011;12904;50.088;11.414;2023-05-07T10:35:41;4.32;;;4.00;;
24813;SDS011;12904;50.088;11.414;2023-05-07T10:38:08;4.80;;;4.40;;
24813;SDS011;12904;50.088;11.414;2023-05-07T10:40:34;4.25;;;3.85;;
24813;SDS011;12904;50.088;11.414;2023-05-07T10:43:01;5.22;;;4.72;;
24813;SDS011;12904;50.088;11.414;2023-05-07T10:45:30;4.88;;;4.45;;
24813;SDS011;12904;50.088;11.414;2023-05-07T10:50:38;4.72;;;4.35;;
24813;SDS011;12904;50.088;11.414;2023-05-07T10:55:43;6.93;;;3.95;;
24813;SDS011;12904;50.088;11.414;2023-05-07T10:58:22;3.85;;;3.42;;
24813;SDS011;12904;50.088;11.414;2023-05-07T11:00:57;5.45;;;3.42;;
24813;SDS011;12904;50.088;11.414;2023-05-07T11:03:25;4.22;;;3.58;;
24813;SDS011;12904;50.088;11.414;2023-05-07T11:11:17;7.75;;;3.50;;
24813;SDS011;12904;50.088;11.414;2023-05-07T11:13:45;3.95;;;3.20;;
24813;SDS011;12904;50.088;11.414;2023-05-07T11:16:21;3.45;;;3.15;;
24813;SDS011;12904;50.088;11.414;2023-05-07T11:18:50;3.58;;;2.50;;
24813;SDS011;12904;50.088;11.414;2023-05-07T11:24:05;3.63;;;3.33;;
24813;SDS011;12904;50.088;11.414;2023-05-07T11:26:42;3.83;;;3.00;;
24813;SDS011;12904;50.088;11.414;2023-05-07T11:29:12;3.60;;;3.25;;
24813;SDS011;12904;50.088;11.414;2023-05-07T11:31:42;3.63;;;3.33;;
24813;SDS011;12904;50.088;11.414;2023-05-07T11:34:08;5.90;;;3.30;;
24813;SDS011;12904;50.088;11.414;2023-05-07T11:36:34;3.60;;;3.30;;
24813;SDS011;12904;50.088;11.414;2023-05-07T11:39:05;2.97;;;2.67;;
24813;SDS011;12904;50.088;11.414;2023-05-07T11:41:47;3.33;;;3.05;;
24813;SDS011;12904;50.088;11.414;2023-05-07T11:44:13;4.57;;;4.18;;
24813;SDS011;12904;50.088;11.414;2023-05-07T11:46:42;4.47;;;3.70;;
24813;SDS011;12904;50.088;11.414;2023-05-07T11:49:08;4.78;;;4.00;;
24813;SDS011;12904;50.088;11.414;2023-05-07T11:51:34;3.35;;;3.13;;
24813;SDS011;12904;50.088;11.414;2023-05-07T11:54:00;4.70;;;3.95;;
24813;SDS011;12904;50.088;11.414;2023-05-07T11:56:28;5.07;;;4.18;;
24813;SDS011;12904;50.088;11.414;2023-05-07T11:58:53;4.97;;;4.57;;
24813;SDS011;12904;50.088;11.414;2023-05-07T12:01:19;4.90;;;4.38;;
24813;SDS011;12904;50.088;11.414;2023-05-07T12:03:45;4.88;;;4.38;;
24813;SDS011;12904;50.088;11.414;2023-05-07T12:06:12;5.43;;;5.03;;
24813;SDS011;12904;50.088;11.414;2023-05-07T12:08:40;6.18;;;5.20;;
24813;SDS011;12904;50.088;11.414;2023-05-07T12:11:09;4.75;;;4.13;;
24813;SDS011;12904;50.088;11.414;2023-05-07T12:13:37;4.30;;;4.00;;
24813;SDS011;12904;50.088;11.414;2023-05-07T12:16:03;4.57;;;4.07;;
24813;SDS011;12904;50.088;11.414;2023-05-07T12:18:30;4.90;;;4.43;;
24813;SDS011;12904;50.088;11.414;2023-05-07T12:20:56;4.40;;;4.00;;
24813;SDS011;12904;50.088;11.414;2023-05-07T12:23:22;4.53;;;3.55;;
24813;SDS011;12904;50.088;11.414;2023-05-07T12:25:48;4.15;;;3.38;;
24813;SDS011;12904;50.088;11.414;2023-05-07T12:28:17;4.93;;;3.50;;
24813;SDS011;12904;50.088;11.414;2023-05-07T12:30:44;3.53;;;3.22;;
24813;SDS011;12904;50.088;11.414;2023-05-07T12:33:16;4.15;;;3.70;;
24813;SDS011;12904;50.088;11.414;2023-05-07T12:35:43;5.22;;;4.47;;
24813;SDS011;12904;50.088;11.414;2023-05-07T12:38:14;4.20;;;3.72;;
24813;SDS011;12904;50.088;11.414;2023-05-07T12:40:43;3.75;;;3.45;;
24813;SDS011;12904;50.088;11.414;2023-05-07T12:43:19;3.60;;;3.28;;
24813;SDS011;12904;50.088;11.414;2023-05-07T12:45:47;4.70;;;3.58;;
24813;SDS011;12904;50.088;11.414;2023-05-07T12:48:14;3.63;;;3.33;;
24813;SDS011;12904;50.088;11.414;2023-05-07T12:50:40;3.58;;;3.38;;
24813;SDS011;12904;50.088;11.414;2023-05-07T12:53:06;3.38;;;3.10;;
24813;SDS011;12904;50.088;11.414;2023-05-07T12:55:45;3.90;;;3.60;;
24813;SDS011;12904;50.088;11.414;2023-05-07T13:00:49;3.65;;;3.22;;
24813;SDS011;12904;50.088;11.414;2023-05-07T13:03:29;3.42;;;2.83;;
24813;SDS011;12904;50.088;11.414;2023-05-07T13:05:56;4.07;;;3.67;;
24813;SDS011;12904;50.088;11.414;2023-05-07T13:08:35;3.03;;;2.72;;
24813;SDS011;12904;50.088;11.414;2023-05-07T13:13:33;2.80;;;2.50;;
24813;SDS011;12904;50.088;11.414;2023-05-07T13:16:00;2.92;;;2.58;;
24813;SDS011;12904;50.088;11.414;2023-05-07T13:18:30;3.90;;;2.75;;
24813;SDS011;12904;50.088;11.414;2023-05-07T13:20:56;2.83;;;2.63;;
24813;SDS011;12904;50.088;11.414;2023-05-07T13:23:22;3.38;;;2.80;;
24813;SDS011;12904;50.088;11.414;2023-05-07T13:25:48;2.60;;;2.40;;
24813;SDS011;12904;50.088;11.414;2023-05-07T13:28:14;3.30;;;2.70;;
24813;SDS011;12904;50.088;11.414;2023-05-07T13:30:40;2.45;;;2.28;;
24813;SDS011;12904;50.088;11.414;2023-05-07T13:33:05;4.35;;;2.80;;
24813;SDS011;12904;50.088;11.414;2023-05-07T13:35:32;3.50;;;2.78;;
24813;SDS011;12904;50.088;11.414;2023-05-07T13:37:58;2.92;;;2.70;;
24813;SDS011;12904;50.088;11.414;2023-05-07T13:40:24;6.30;;;2.90;;
24813;SDS011;12904;50.088;11.414;2023-05-07T13:42:49;2.88;;;2.33;;
24813;SDS011;12904;50.088;11.414;2023-05-07T13:45:16;3.40;;;3.03;;
24813;SDS011;12904;50.088;11.414;2023-05-07T13:47:45;2.95;;;2.60;;
24813;SDS011;12904;50.088;11.414;2023-05-07T13:50:11;2.88;;;2.63;;
24813;SDS011;12904;50.088;11.414;2023-05-07T13:52:39;2.58;;;2.33;;
24813;SDS011;12904;50.088;11.414;2023-05-07T13:55:06;2.78;;;2.40;;
24813;SDS011;12904;50.088;11.414;2023-05-07T13:57:32;2.78;;;2.45;;
24813;SDS011;12904;50.088;11.414;2023-05-07T13:59:57;3.42;;;3.13;;
24813;SDS011;12904;50.088;11.414;2023-05-07T14:02:23;4.47;;;4.07;;
24813;SDS011;12904;50.088;11.414;2023-05-07T14:04:49;3.55;;;3.25;;
24813;SDS011;12904;50.088;11.414;2023-05-07T14:07:14;4.28;;;3.60;;
24813;SDS011;12904;50.088;11.414;2023-05-07T14:09:40;3.78;;;3.47;;
24813;SDS011;12904;50.088;11.414;2023-05-07T14:12:06;3.63;;;3.33;;
24813;SDS011;12904;50.088;11.414;2023-05-07T14:14:32;3.53;;;3.22;;
24813;SDS011;12904;50.088;11.414;2023-05-07T14:16:57;4.30;;;3.95;;
24813;SDS011;12904;50.088;11.414;2023-05-07T14:19:23;4.88;;;3.80;;
24813;SDS011;12904;50.088;11.414;2023-05-07T14:21:48;3.53;;;3.22;;
24813;SDS011;12904;50.088;11.414;2023-05-07T14:24:14;3.72;;;3.25;;
24813;SDS011;12904;50.088;11.414;2023-05-07T14:26:40;3.08;;;2.88;;
24813;SDS011;12904;50.088;11.414;2023-05-07T14:29:05;3.00;;;2.80;;
24813;SDS011;12904;50.088;11.414;2023-05-07T14:31:31;3.92;;;3.47;;
24813;SDS011;12904;50.088;11.414;2023-05-07T14:33:58;3.15;;;2.95;;
24813;SDS011;12904;50.088;11.414;2023-05-07T14:36:24;3.30;;;3.00;;
24813;SDS011;12904;50.088;11.414;2023-05-07T14:38:51;6.43;;;3.65;;